sensor_id;sensor_type;location;lat;lon;timestamp;pressure;altitude;pressure_sealevel;temperature;humidity
57374;BME280;43964;53.890;25.340;2023-06-26T00:02:46;1021.7;;;20.4;47.5
57374;BME280;43964;53.890;25.340;2023-06-26T00:06:58;1021.7;;;20.4;47.5
57374;BME280;43964;53.890;25.340;2023-06-26T00:12:06;1021.7;;;20.4;47.5
57374;BME280;43964;53.890;25.340;2023-06-26T00:17:46;1021.6;;;20.2;47.6
57374;BME280;43964;53.890;25.340;2023-06-26T00:22:12;1021.6;;;20.1;48.1
57374;BME280;43964;53.890;25.340;2023-06-26T00:27:20;1021.6;;;20;48.2
57374;BME280;43964;53.890;25.340;2023-06-26T00:32:22;1021.6;;;20;48.2
57374;BME280;43964;53.890;25.340;2023-06-26T00:37:16;1021.5;;;20;48.2
57374;BME280;43964;53.890;25.340;2023-06-26T00:41:58;1021.6;;;19.9;48.2
57374;BME280;43964;53.890;25.340;2023-06-26T00:47:22;1021.6;;;19.9;48.3
57374;BME280;43964;53.890;25.340;2023-06-26T00:52:46;1021.6;;;19.9;48.3
57374;BME280;43964;53.890;25.340;2023-06-26T00:57:38;1021.6;;;19.8;48.4
57374;BME280;43964;53.890;25.340;2023-06-26T01:02:20;1021.5;;;19.7;48.8
57374;BME280;43964;53.890;25.340;2023-06-26T01:06:58;1021.5;;;19.7;48.9
57374;BME280;43964;53.890;25.340;2023-06-26T01:12:46;1021.5;;;19.7;48.9
57374;BME280;43964;53.890;25.340;2023-06-26T01:16:58;1021.6;;;19.5;48.8
57374;BME280;43964;53.890;25.340;2023-06-26T01:22:00;1021.5;;;19.5;49
57374;BME280;43964;53.890;25.340;2023-06-26T01:27:32;1021.5;;;19.5;49
57374;BME280;43964;53.890;25.340;2023-06-26T01:32:40;1021.4;;;19.4;49
57374;BME280;43964;53.890;25.340;2023-06-26T01:37:30;1021.5;;;19.4;48.9
57374;BME280;43964;53.890;25.340;2023-06-26T01:41:58;1021.4;;;19.4;49.1
57374;BME280;43964;53.890;25.340;2023-06-26T01:47:24;1021.4;;;19.3;49.3
57374;BME280;43964;53.890;25.340;2023-06-26T01:52:49;1021.5;;;19.4;49.3
57374;BME280;43964;53.890;25.340;2023-06-26T01:57:48;1021.4;;;19.5;49.2
57374;BME280;43964;53.890;25.340;2023-06-26T02:02:32;1021.5;;;19.7;49.1
57374;BME280;43964;53.890;25.340;2023-06-26T02:07:40;1021.5;;;19.8;48.9
57374;BME280;43964;53.890;25.340;2023-06-26T02:12:46;1021.5;;;19.8;48.6
57374;BME280;43964;53.890;25.340;2023-06-26T02:17:22;1021.5;;;19.8;48.5
57374;BME280;43964;53.890;25.340;2023-06-26T02:22:24;1021.5;;;19.8;48.5
57374;BME280;43964;53.890;25.340;2023-06-26T02:27:22;1021.4;;;20.9;47.1
57374;BME280;43964;53.890;25.340;2023-06-26T02:32:48;1021.4;;;20.9;47.1
57374;BME280;43964;53.890;25.340;2023-06-26T02:37:48;1021.3;;;25.7;40.8
57374;BME280;43964;53.890;25.340;2023-06-26T02:42:48;1021.2;;;27.5;38.1
57374;BME280;43964;53.890;25.340;2023-06-26T02:47:48;1021.2;;;29.8;36.9
57374;BME280;43964;53.890;25.340;2023-06-26T02:52:32;1021.2;;;31.6;34.6
57374;BME280;43964;53.890;25.340;2023-06-26T02:56:58;1021.1;;;33.4;32.4
57374;BME280;43964;53.890;25.340;2023-06-26T03:02:32;1021.1;;;34.7;30.1
57374;BME280;43964;53.890;25.340;2023-06-26T03:07:48;1021;;;36;26.6
57374;BME280;43964;53.890;25.340;2023-06-26T03:12:30;1021;;;37.2;24.8
57374;BME280;43964;53.890;25.340;2023-06-26T03:17:22;1021;;;38.7;23.3
57374;BME280;43964;53.890;25.340;2023-06-26T03:22:46;1021.1;;;40;21.7
57374;BME280;43964;53.890;25.340;2023-06-26T03:27:08;1021.1;;;41.1;20.1
57374;BME280;43964;53.890;25.340;2023-06-26T03:32:30;1021.1;;;42.1;19.6
57374;BME280;43964;53.890;25.340;2023-06-26T03:36:58;1021.2;;;43;19
57374;BME280;43964;53.890;25.340;2023-06-26T03:42:10;1021.2;;;43;19
57374;BME280;43964;53.890;25.340;2023-06-26T03:47:30;1021.2;;;44.6;17.8
57374;BME280;43964;53.890;25.340;2023-06-26T03:52:48;1021.2;;;45.5;16.9
57374;BME280;43964;53.890;25.340;2023-06-26T03:57:24;1021.2;;;46.4;16.1
57374;BME280;43964;53.890;25.340;2023-06-26T04:01:58;1021.1;;;46.8;15.4
57374;BME280;43964;53.890;25.340;2023-06-26T04:07:30;1021.1;;;47.5;14.4
57374;BME280;43964;53.890;25.340;2023-06-26T04:12:14;1021.1;;;48.4;13.6
57374;BME280;43964;53.890;25.340;2023-06-26T04:17:12;1021.2;;;49.2;13.2
57374;BME280;43964;53.890;25.340;2023-06-26T04:22:30;1021.2;;;49.9;12.5
57374;BME280;43964;53.890;25.340;2023-06-26T04:27:48;1021.1;;;50.6;12.1
57374;BME280;43964;53.890;25.340;2023-06-26T04:31:58;1021.1;;;51.3;11.7
57374;BME280;43964;53.890;25.340;2023-06-26T04:37:08;1021.1;;;52;11.7
57374;BME280;43964;53.890;25.340;2023-06-26T04:42:48;1021.1;;;52.4;11.4
57374;BME280;43964;53.890;25.340;2023-06-26T04:47:04;1021;;;52.9;10.9
57374;BME280;43964;53.890;25.340;2023-06-26T04:52:20;1020.9;;;53.2;10.2
57374;BME280;43964;53.890;25.340;2023-06-26T04:57:24;1020.9;;;53.6;9.9
57374;BME280;43964;53.890;25.340;2023-06-26T05:02:40;1020.9;;;54;9.8
57374;BME280;43964;53.890;25.340;2023-06-26T05:06:58;1020.8;;;54;9.5
57374;BME280;43964;53.890;25.340;2023-06-26T05:12:08;1020.8;;;54.2;9.6
57374;BME280;43964;53.890;25.340;2023-06-26T05:17:46;1020.8;;;54.5;9.6
57374;BME280;43964;53.890;25.340;2023-06-26T05:22:36;1020.8;;;54.9;9.4
57374;BME280;43964;53.890;25.340;2023-06-26T05:27:28;1020.8;;;55.4;9.2
57374;BME280;43964;53.890;25.340;2023-06-26T05:32:24;1020.8;;;55.6;9
57374;BME280;43964;53.890;25.340;2023-06-26T05:37:46;1020.7;;;55.3;8.9
57374;BME280;43964;53.890;25.340;2023-06-26T05:41:58;1020.8;;;55.4;8.9
57374;BME280;43964;53.890;25.340;2023-06-26T05:47:14;1020.7;;;54.7;8.9
57374;BME280;43964;53.890;25.340;2023-06-26T05:52:32;1020.7;;;49.5;11.3
57374;BME280;43964;53.890;25.340;2023-06-26T05:57:38;1020.6;;;46.1;13.4
57374;BME280;43964;53.890;25.340;2023-06-26T06:02:46;1020.5;;;43.2;14.9
57374;BME280;43964;53.890;25.340;2023-06-26T06:07:24;1020.6;;;41.1;16
57374;BME280;43964;53.890;25.340;2023-06-26T06:11:58;1020.6;;;38.6;17.3
57374;BME280;43964;53.890;25.340;2023-06-26T06:22:46;1020.5;;;37.5;18.2
57374;BME280;43964;53.890;25.340;2023-06-26T06:32:38;1020.6;;;35.4;20.8
57374;BME280;43964;53.890;25.340;2023-06-26T06:51:58;1020.5;;;34.4;22.8
57374;BME280;43964;53.890;25.340;2023-06-26T06:57:46;1020.5;;;34.1;23.2
57374;BME280;43964;53.890;25.340;2023-06-26T07:02:46;1020.5;;;33.1;24.1
57374;BME280;43964;53.890;25.340;2023-06-26T07:07:46;1020.5;;;32.3;25.1
57374;BME280;43964;53.890;25.340;2023-06-26T07:12:46;1020.5;;;32.3;25.1
57374;BME280;43964;53.890;25.340;2023-06-26T07:17:32;1020.6;;;31.6;25.3
57374;BME280;43964;53.890;25.340;2023-06-26T07:21:58;1020.7;;;30.7;26.1
57374;BME280;43964;53.890;25.340;2023-06-26T07:27:06;1020.8;;;29.9;27.2
57374;BME280;43964;53.890;25.340;2023-06-26T07:32:46;1020.8;;;28.9;29.2
57374;BME280;43964;53.890;25.340;2023-06-26T07:37:28;1020.6;;;28.3;29.8
57374;BME280;43964;53.890;25.340;2023-06-26T07:42:10;1020.5;;;28.1;30.4
57374;BME280;43964;53.890;25.340;2023-06-26T07:47:46;1020.4;;;28.4;30.7
57374;BME280;43964;53.890;25.340;2023-06-26T07:52:10;1020.3;;;29.1;30.6
57374;BME280;43964;53.890;25.340;2023-06-26T07:56:59;1020.3;;;29.4;30.8
57374;BME280;43964;53.890;25.340;2023-06-26T08:02:14;1020.2;;;29.8;31.1
57374;BME280;43964;53.890;25.340;2023-06-26T08:07:28;1020.2;;;30.4;31.1
57374;BME280;43964;53.890;25.340;2023-06-26T08:12:28;1020.4;;;31.1;30.5
57374;BME280;43964;53.890;25.340;2023-06-26T08:17:32;1020.4;;;31.2;30.5
57374;BME280;43964;53.890;25.340;2023-06-26T08:21:58;1020.4;;;31;30.6
57374;BME280;43964;53.890;25.340;2023-06-26T08:31:58;1020.4;;;30.4;30.7
57374;BME280;43964;53.890;25.340;2023-06-26T08:37:12;1020.4;;;30.1;31
57374;BME280;43964;53.890;25.340;2023-06-26T09:07:26;1020.3;;;29.7;31.3
57374;BME280;43964;53.890;25.340;2023-06-26T09:12:31;1020.1;;;28.7;33.3
57374;BME280;43964;53.890;25.340;2023-06-26T09:27:44;1019.9;;;28.7;33.2
57374;BME280;43964;53.890;25.340;2023-06-26T09:36:59;1019.8;;;28.9;33
57374;BME280;43964;53.890;25.340;2023-06-26T09:46:58;1019.6;;;29.2;32.5
57374;BME280;43964;53.890;25.340;2023-06-26T09:52:27;1019.6;;;29.2;32.5
57374;BME280;43964;53.890;25.340;2023-06-26T10:17:44;1019.3;;;29.2;32.2
57374;BME280;43964;53.890;25.340;2023-06-26T10:22:37;1019.3;;;29.4;32.1
57374;BME280;43964;53.890;25.340;2023-06-26T10:26:59;1019.2;;;29.6;32
57374;BME280;43964;53.890;25.340;2023-06-26T10:32:23;1019.1;;;29.7;32
57374;BME280;43964;53.890;25.340;2023-06-26T10:37:45;1019.1;;;29.8;32.1
57374;BME280;43964;53.890;25.340;2023-06-26T10:42:08;1019.1;;;29.9;32.1
57374;BME280;43964;53.890;25.340;2023-06-26T10:47:28;1019.1;;;30.2;31.9
57374;BME280;43964;53.890;25.340;2023-06-26T10:52:32;1019;;;30.6;31.4
57374;BME280;43964;53.890;25.340;2023-06-26T10:57:23;1019;;;30.7;30.9
57374;BME280;43964;53.890;25.340;2023-06-26T11:02:48;1019;;;30.6;30.7
57374;BME280;43964;53.890;25.340;2023-06-26T11:07:14;1019;;;30.5;30.4
57374;BME280;43964;53.890;25.340;2023-06-26T11:11:59;1018.9;;;30.4;30.3
57374;BME280;43964;53.890;25.340;2023-06-26T11:32:37;1018.8;;;31.7;29.1
57374;BME280;43964;53.890;25.340;2023-06-26T11:42:32;1018.9;;;30.7;29.4
57374;BME280;43964;53.890;25.340;2023-06-26T11:47:11;1018.9;;;30.5;29.6
57374;BME280;43964;53.890;25.340;2023-06-26T11:52:33;1018.8;;;29.8;30.2
57374;BME280;43964;53.890;25.340;2023-06-26T11:57:47;1018.8;;;29.4;30.7
57374;BME280;43964;53.890;25.340;2023-06-26T12:02:47;1018.8;;;29.7;30.7
57374;BME280;43964;53.890;25.340;2023-06-26T12:07:21;1018.7;;;30.2;30.2
57374;BME280;43964;53.890;25.340;2023-06-26T12:12:47;1018.6;;;30.8;29.4
57374;BME280;43964;53.890;25.340;2023-06-26T12:17:03;1018.6;;;31.2;29.1
57374;BME280;43964;53.890;25.340;2023-06-26T12:21:59;1018.5;;;31.5;28.8
57374;BME280;43964;53.890;25.340;2023-06-26T12:26:59;1018.4;;;31.6;28.6
57374;BME280;43964;53.890;25.340;2023-06-26T12:32:29;1018.3;;;31.9;28.3
57374;BME280;43964;53.890;25.340;2023-06-26T12:37:36;1018.3;;;31.9;28.2
57374;BME280;43964;53.890;25.340;2023-06-26T12:42:33;1018.3;;;31.8;28.1
57374;BME280;43964;53.890;25.340;2023-06-26T12:47:15;1018.2;;;31.8;28.1
57374;BME280;43964;53.890;25.340;2023-06-26T12:51:59;1018.3;;;30.8;28.8
57374;BME280;43964;53.890;25.340;2023-06-26T12:57:09;1018.3;;;30;29.7
57374;BME280;43964;53.890;25.340;2023-06-26T13:02:09;1018.4;;;29.8;30.1
57374;BME280;43964;53.890;25.340;2023-06-26T13:07:23;1018.4;;;28.8;30.8
57374;BME280;43964;53.890;25.340;2023-06-26T13:12:31;1018.5;;;28;31.5
57374;BME280;43964;53.890;25.340;2023-06-26T13:17:47;1018.5;;;27.6;32.2
57374;BME280;43964;53.890;25.340;2023-06-26T13:21:59;1018.5;;;27.5;33.1
57374;BME280;43964;53.890;25.340;2023-06-26T13:27:15;1018.5;;;27.1;34
57374;BME280;43964;53.890;25.340;2023-06-26T13:32:01;1018.4;;;27;34.4
57374;BME280;43964;53.890;25.340;2023-06-26T13:37:15;1018.3;;;27.3;34.2
57374;BME280;43964;53.890;25.340;2023-06-26T13:42:31;1018.3;;;27.5;33.5
57374;BME280;43964;53.890;25.340;2023-06-26T13:47:41;1018.3;;;27.7;33.6
57374;BME280;43964;53.890;25.340;2023-06-26T13:52:43;1018.3;;;28.1;33.1
57374;BME280;43964;53.890;25.340;2023-06-26T13:57:15;1018.2;;;28.4;32.9
57374;BME280;43964;53.890;25.340;2023-06-26T14:01:59;1018.2;;;28.3;32.8
57374;BME280;43964;53.890;25.340;2023-06-26T14:07:49;1018.1;;;28.2;32.8
57374;BME280;43964;53.890;25.340;2023-06-26T14:12:09;1018;;;28.3;32.6
57374;BME280;43964;53.890;25.340;2023-06-26T14:17:23;1017.9;;;28.8;32.3
57374;BME280;43964;53.890;25.340;2023-06-26T14:22:49;1017.8;;;28.9;32.2
57374;BME280;43964;53.890;25.340;2023-06-26T14:27:27;1017.9;;;28.8;32.6
57374;BME280;43964;53.890;25.340;2023-06-26T14:32:33;1017.9;;;28;33.3
57374;BME280;43964;53.890;25.340;2023-06-26T14:37:09;1017.9;;;27.4;34.2
57374;BME280;43964;53.890;25.340;2023-06-26T14:42:49;1017.8;;;27.2;34.5
57374;BME280;43964;53.890;25.340;2023-06-26T14:47:41;1017.9;;;26.8;34.8
57374;BME280;43964;53.890;25.340;2023-06-26T14:51:59;1017.8;;;26.5;35.1
57374;BME280;43964;53.890;25.340;2023-06-26T14:57:09;1017.7;;;26.6;35.4
57374;BME280;43964;53.890;25.340;2023-06-26T15:02:49;1017.7;;;26.7;35.4
57374;BME280;43964;53.890;25.340;2023-06-26T15:07:49;1017.6;;;26.7;35.7
57374;BME280;43964;53.890;25.340;2023-06-26T15:12:05;1017.7;;;26.6;35.9
57374;BME280;43964;53.890;25.340;2023-06-26T15:17:33;1017.8;;;26.3;36.7
57374;BME280;43964;53.890;25.340;2023-06-26T15:22:23;1017.9;;;25.9;37.6
57374;BME280;43964;53.890;25.340;2023-06-26T15:27:49;1017.9;;;25.8;37.2
57374;BME280;43964;53.890;25.340;2023-06-26T15:32:25;1017.8;;;25.7;37.8
57374;BME280;43964;53.890;25.340;2023-06-26T15:36:59;1017.8;;;25.9;37.7
57374;BME280;43964;53.890;25.340;2023-06-26T15:42:09;1017.9;;;26.1;37.4
57374;BME280;43964;53.890;25.340;2023-06-26T15:47:49;1017.9;;;26.2;37.6
57374;BME280;43964;53.890;25.340;2023-06-26T15:52:33;1017.8;;;26.2;37.7
57374;BME280;43964;53.890;25.340;2023-06-26T15:57:41;1017.9;;;25.9;38.5
57374;BME280;43964;53.890;25.340;2023-06-26T16:02:49;1017.8;;;25.6;39.2
57374;BME280;43964;53.890;25.340;2023-06-26T16:07:17;1017.7;;;25.4;39.5
57374;BME280;43964;53.890;25.340;2023-06-26T16:11:59;1017.7;;;25.2;39.9
57374;BME280;43964;53.890;25.340;2023-06-26T16:17:27;1017.7;;;25.3;39.7
57374;BME280;43964;53.890;25.340;2023-06-26T16:27:29;1017.7;;;25.5;40
57374;BME280;43964;53.890;25.340;2023-06-26T16:32:23;1017.7;;;25.3;40.6
57374;BME280;43964;53.890;25.340;2023-06-26T16:37:49;1017.8;;;25.2;40.9
57374;BME280;43964;53.890;25.340;2023-06-26T16:41:59;1017.7;;;25;41.9
57374;BME280;43964;53.890;25.340;2023-06-26T16:47:09;1017.6;;;24.8;42.4
57374;BME280;43964;53.890;25.340;2023-06-26T16:52:15;1017.7;;;24.7;42.5
57374;BME280;43964;53.890;25.340;2023-06-26T16:57:49;1017.7;;;24.6;43
57374;BME280;43964;53.890;25.340;2023-06-26T17:02:31;1017.7;;;24.5;43.2
57374;BME280;43964;53.890;25.340;2023-06-26T17:07:33;1017.7;;;24.6;43.1
57374;BME280;43964;53.890;25.340;2023-06-26T17:12:25;1017.7;;;24.7;42.9
57374;BME280;43964;53.890;25.340;2023-06-26T17:27:15;1017.7;;;24.7;42.9
57374;BME280;43964;53.890;25.340;2023-06-26T17:32:23;1017.7;;;24.7;42.9
57374;BME280;43964;53.890;25.340;2023-06-26T17:37:33;1017.7;;;24.7;42.8
57374;BME280;43964;53.890;25.340;2023-06-26T17:47:15;1017.8;;;24.7;42.9
57374;BME280;43964;53.890;25.340;2023-06-26T17:51:59;1017.8;;;24.7;42.9
57374;BME280;43964;53.890;25.340;2023-06-26T17:57:33;1017.7;;;24.7;43
57374;BME280;43964;53.890;25.340;2023-06-26T18:02:15;1017.8;;;24.6;43.2
57374;BME280;43964;53.890;25.340;2023-06-26T18:07:39;1017.8;;;24.5;43.2
57374;BME280;43964;53.890;25.340;2023-06-26T18:12:39;1017.8;;;24.5;42.9
57374;BME280;43964;53.890;25.340;2023-06-26T18:17:51;1017.8;;;24.5;43
57374;BME280;43964;53.890;25.340;2023-06-26T18:21:59;1017.8;;;24.5;43.1
57374;BME280;43964;53.890;25.340;2023-06-26T18:27:15;1017.8;;;24.5;43.2
57374;BME280;43964;53.890;25.340;2023-06-26T18:36:59;1017.8;;;24.4;43.4
57374;BME280;43964;53.890;25.340;2023-06-26T18:42:23;1017.8;;;24.1;43.4
57374;BME280;43964;53.890;25.340;2023-06-26T18:47:13;1017.8;;;24;43.7
57374;BME280;43964;53.890;25.340;2023-06-26T18:52:39;1017.7;;;23.9;43.8
57374;BME280;43964;53.890;25.340;2023-06-26T18:56:59;1017.7;;;23.9;44.2
57374;BME280;43964;53.890;25.340;2023-06-26T19:01:57;1017.8;;;23.9;44.2
57374;BME280;43964;53.890;25.340;2023-06-26T19:12:41;1017.8;;;23.9;44.3
57374;BME280;43964;53.890;25.340;2023-06-26T19:17:23;1017.9;;;23.6;44.6
57374;BME280;43964;53.890;25.340;2023-06-26T19:22:25;1017.9;;;23.4;45.2
57374;BME280;43964;53.890;25.340;2023-06-26T19:27:49;1017.9;;;23.3;45.4
57374;BME280;43964;53.890;25.340;2023-06-26T19:32:23;1017.9;;;23.3;45.7
57374;BME280;43964;53.890;25.340;2023-06-26T19:37:51;1017.9;;;23.3;45.9
57374;BME280;43964;53.890;25.340;2023-06-26T19:42:33;1017.9;;;23.2;46.2
57374;BME280;43964;53.890;25.340;2023-06-26T19:47:41;1017.8;;;23.1;46
57374;BME280;43964;53.890;25.340;2023-06-26T19:52:51;1017.8;;;23;46.4
57374;BME280;43964;53.890;25.340;2023-06-26T19:57:25;1017.7;;;23;46.6
57374;BME280;43964;53.890;25.340;2023-06-26T20:02:25;1017.7;;;23.1;46.5
57374;BME280;43964;53.890;25.340;2023-06-26T20:07:09;1017.7;;;22.9;46.2
57374;BME280;43964;53.890;25.340;2023-06-26T20:12:51;1017.7;;;22.8;46.9
57374;BME280;43964;53.890;25.340;2023-06-26T20:17:51;1017.6;;;22.8;47
57374;BME280;43964;53.890;25.340;2023-06-26T20:22:49;1017.6;;;22.6;47.6
57374;BME280;43964;53.890;25.340;2023-06-26T20:27:51;1017.6;;;22.4;47.8
57374;BME280;43964;53.890;25.340;2023-06-26T20:32:35;1017.6;;;22.2;48.3
57374;BME280;43964;53.890;25.340;2023-06-26T20:36:57;1017.5;;;22.1;48.8
57374;BME280;43964;53.890;25.340;2023-06-26T20:42:33;1017.5;;;22.1;48.7
57374;BME280;43964;53.890;25.340;2023-06-26T20:47:51;1017.6;;;22.1;48.3
57374;BME280;43964;53.890;25.340;2023-06-26T20:52:49;1017.6;;;21.9;49.3
57374;BME280;43964;53.890;25.340;2023-06-26T21:02:47;1017.5;;;21.8;49.4
57374;BME280;43964;53.890;25.340;2023-06-26T21:07:07;1017.5;;;21.8;49.8
57374;BME280;43964;53.890;25.340;2023-06-26T21:17:05;1017.4;;;21.7;49.4
57374;BME280;43964;53.890;25.340;2023-06-26T21:27:21;1017.5;;;21.4;50.1
57374;BME280;43964;53.890;25.340;2023-06-26T21:32:35;1017.5;;;21.3;50.5
57374;BME280;43964;53.890;25.340;2023-06-26T21:36:57;1017.5;;;21.4;50.5
57374;BME280;43964;53.890;25.340;2023-06-26T21:41:57;1017.3;;;21.5;50.5
57374;BME280;43964;53.890;25.340;2023-06-26T21:46:57;1017.2;;;21.5;50.8
57374;BME280;43964;53.890;25.340;2023-06-26T21:52:31;1017.1;;;21.7;50.5
57374;BME280;43964;53.890;25.340;2023-06-26T21:57:23;1017.1;;;21.7;50.5
57374;BME280;43964;53.890;25.340;2023-06-26T22:02:23;1017.1;;;21.6;50.3
57374;BME280;43964;53.890;25.340;2023-06-26T22:17:27;1017.3;;;21;51.2
57374;BME280;43964;53.890;25.340;2023-06-26T22:27:35;1017.3;;;20.7;51.2
57374;BME280;43964;53.890;25.340;2023-06-26T22:32:41;1017.3;;;20.6;51.4
57374;BME280;43964;53.890;25.340;2023-06-26T22:37:41;1017.2;;;20.5;51.8
57374;BME280;43964;53.890;25.340;2023-06-26T22:42:51;1017.3;;;20.4;51.5
57374;BME280;43964;53.890;25.340;2023-06-26T22:47:51;1017.2;;;20.4;51.8
57374;BME280;43964;53.890;25.340;2023-06-26T22:51:59;1017.1;;;20.3;52.1
57374;BME280;43964;53.890;25.340;2023-06-26T22:57:51;1017.1;;;20.3;52.1
57374;BME280;43964;53.890;25.340;2023-06-26T23:02:35;1017.1;;;20.5;52.1
57374;BME280;43964;53.890;25.340;2023-06-26T23:12:25;1017;;;20.4;52.1
57374;BME280;43964;53.890;25.340;2023-06-26T23:17:41;1017;;;20.2;51.9
57374;BME280;43964;53.890;25.340;2023-06-26T23:21:59;1016.9;;;20.2;52.1
57374;BME280;43964;53.890;25.340;2023-06-26T23:27:25;1017;;;20.2;52
57374;BME280;43964;53.890;25.340;2023-06-26T23:32:49;1016.9;;;20.1;52
57374;BME280;43964;53.890;25.340;2023-06-26T23:37:41;1016.9;;;20;52
57374;BME280;43964;53.890;25.340;2023-06-26T23:42:23;1016.9;;;19.7;52.1
57374;BME280;43964;53.890;25.340;2023-06-26T23:47:25;1016.9;;;19.6;52.7
57374;BME280;43964;53.890;25.340;2023-06-26T23:52:51;1016.8;;;19.7;52.9
57374;BME280;43964;53.890;25.340;2023-06-26T23:57:09;1016.8;;;20;52.5
